PWSweather.com
Personal Weather Stations
Station Observations
WISCHPK61
Green Bay Schmitt Park, Green Bay, WI 54311

Green Bay Schmitt ParkGreen Bay, WI 54311

Lat: 44.514277, Lon: -87.935067

Elevation: 735

Station Type: Acu Rite Pro Weather Center model 02032C

http://greenbayweathercam.com

High Low Average
Temperature 37.0°F2.8°C 17.6°F-8.0°C 27.7°F-2.4°C
Dew Point 30.9°F-0.6°C 17.4°F-8.1°C 25.1°F-3.8°C
Winds 3.5 mph 5.6 kmh Calm Calm Calm SCalm S
Wind Gusts 3.5 mph5.6 kmh -- 1.0 mph1.6 kmh
Humidity 99% 72% 91%
Pressure 29.55 in1000.7 mb 29.34 in993.6 mb -
Precipitation 0.01 in0.3 mm - -
Hour Temp Dew Point Humidity Winds Wind Gusts Pressure Precip Precip Rate Daily Precip Total
12:00 AM 23.9°F-4.5°C 21.4°F-5.9°C 90% Calm Calm -- 29.36 in994.2 mb - 0.00 in0.0 mm 0.03 in0.8 mm
12:15 AM 23.5°F-4.7°C 21.5°F-5.8°C 92% Calm Calm -- 29.37 in994.6 mb - 0.00 in0.0 mm 0.03 in0.8 mm
12:30 AM 23.9°F-4.5°C 22.2°F-5.4°C 93% Calm Calm -- 29.38 in994.9 mb - 0.00 in0.0 mm 0.03 in0.8 mm
12:45 AM 23.7°F-4.6°C 21.7°F-5.7°C 92% Calm Calm -- 29.38 in994.9 mb - 0.00 in0.0 mm 0.03 in0.8 mm
01:00 AM 23.1°F-4.9°C 20.8°F-6.2°C 91% Calm Calm -- 29.38 in994.9 mb - 0.00 in0.0 mm 0.00 in0.0 mm
01:15 AM 22.5°F-5.3°C 20.8°F-6.2°C 93% Calm Calm -- 29.38 in994.9 mb - 0.00 in0.0 mm 0.00 in0.0 mm
01:30 AM 21.8°F-5.7°C 20.1°F-6.6°C 93% Calm Calm -- 29.39 in995.3 mb - 0.00 in0.0 mm 0.00 in0.0 mm
01:45 AM 21.3°F-5.9°C 19.8°F-6.8°C 94% Calm Calm -- 29.39 in995.3 mb - 0.00 in0.0 mm 0.00 in0.0 mm
02:00 AM 20.8°F-6.2°C 19.8°F-6.8°C 96% Calm Calm -- 29.39 in995.3 mb - 0.00 in0.0 mm 0.00 in0.0 mm
02:15 AM 20.4°F-6.4°C 19.5°F-6.9°C 96% Calm Calm -- 29.40 in995.6 mb - 0.00 in0.0 mm 0.00 in0.0 mm
02:30 AM 19.9°F-6.7°C 19.2°F-7.1°C 97% Calm Calm -- 29.40 in995.6 mb - 0.00 in0.0 mm 0.00 in0.0 mm
02:45 AM 19.9°F-6.7°C 19.4°F-7.0°C 98% Calm Calm -- 29.41 in995.9 mb - 0.00 in0.0 mm 0.00 in0.0 mm
03:00 AM 19.9°F-6.7°C 19.4°F-7.0°C 98% Calm Calm -- 29.41 in995.9 mb - 0.00 in0.0 mm 0.00 in0.0 mm
03:15 AM 19.9°F-6.7°C 19.4°F-7.0°C 98% Calm Calm -- 29.42 in996.3 mb - 0.00 in0.0 mm 0.00 in0.0 mm
03:30 AM 19.9°F-6.7°C 19.4°F-7.0°C 98% Calm Calm -- 29.43 in996.6 mb - 0.00 in0.0 mm 0.00 in0.0 mm
03:45 AM 19.8°F-6.8°C 19.3°F-7.1°C 98% Calm Calm -- 29.43 in996.6 mb - 0.00 in0.0 mm 0.00 in0.0 mm
04:00 AM 19.4°F-7.0°C 18.9°F-7.3°C 98% Calm Calm -- 29.43 in996.6 mb - 0.00 in0.0 mm 0.00 in0.0 mm
04:15 AM 19.2°F-7.1°C 18.7°F-7.4°C 98% Calm Calm -- 29.44 in997.0 mb - 0.00 in0.0 mm 0.00 in0.0 mm
04:30 AM 19.0°F-7.2°C 18.8°F-7.3°C 99% Calm Calm -- 29.44 in997.0 mb - 0.00 in0.0 mm 0.00 in0.0 mm
04:45 AM 19.0°F-7.2°C 18.8°F-7.3°C 99% Calm Calm -- 29.44 in997.0 mb - 0.00 in0.0 mm 0.00 in0.0 mm
05:00 AM 19.4°F-7.0°C 19.1°F-7.2°C 99% Calm Calm -- 29.44 in997.0 mb - 0.00 in0.0 mm 0.00 in0.0 mm
05:15 AM 19.4°F-7.0°C 19.2°F-7.1°C 99% Calm Calm -- 29.45 in997.3 mb - 0.00 in0.0 mm 0.00 in0.0 mm
05:30 AM 19.8°F-6.8°C 19.6°F-6.9°C 99% Calm Calm -- 29.45 in997.3 mb - 0.00 in0.0 mm 0.00 in0.0 mm
05:45 AM 19.8°F-6.8°C 19.6°F-6.9°C 99% Calm Calm -- 29.45 in997.3 mb - 0.00 in0.0 mm 0.00 in0.0 mm
06:00 AM 19.8°F-6.8°C 19.6°F-6.9°C 99% Calm Calm -- 29.46 in997.6 mb - 0.00 in0.0 mm 0.00 in0.0 mm
06:15 AM 19.7°F-6.8°C 19.5°F-6.9°C 99% Calm Calm -- 29.47 in998.0 mb - 0.00 in0.0 mm 0.00 in0.0 mm
06:30 AM 20.1°F-6.6°C 19.9°F-6.7°C 99% Calm Calm -- 29.47 in998.0 mb - 0.00 in0.0 mm 0.00 in0.0 mm
06:45 AM 20.1°F-6.6°C 19.9°F-6.7°C 99% Calm Calm -- 29.48 in998.3 mb - 0.00 in0.0 mm 0.00 in0.0 mm
07:00 AM 20.3°F-6.5°C 20.1°F-6.6°C 99% Calm Calm -- 29.48 in998.3 mb - 0.00 in0.0 mm 0.00 in0.0 mm
07:15 AM 20.3°F-6.5°C 20.1°F-6.6°C 99% Calm Calm -- 29.48 in998.3 mb - 0.00 in0.0 mm 0.00 in0.0 mm
07:30 AM 19.6°F-6.9°C 19.4°F-7.0°C 99% Calm Calm -- 29.48 in998.3 mb - 0.00 in0.0 mm 0.00 in0.0 mm
07:45 AM 19.0°F-7.2°C 18.8°F-7.3°C 99% Calm Calm -- 29.49 in998.6 mb - 0.00 in0.0 mm 0.00 in0.0 mm
08:00 AM 18.5°F-7.5°C 18.3°F-7.6°C 99% Calm Calm -- 29.49 in998.6 mb - 0.00 in0.0 mm 0.00 in0.0 mm
08:15 AM 18.0°F-7.8°C 17.8°F-7.9°C 99% Calm Calm -- 29.49 in998.6 mb - 0.00 in0.0 mm 0.00 in0.0 mm
08:30 AM 17.6°F-8.0°C 17.4°F-8.1°C 99% Calm Calm -- 29.50 in999.0 mb - 0.00 in0.0 mm 0.00 in0.0 mm
08:45 AM 18.0°F-7.8°C 17.8°F-7.9°C 99% Calm Calm -- 29.50 in999.0 mb - 0.00 in0.0 mm 0.00 in0.0 mm
09:00 AM 19.1°F-7.2°C 18.8°F-7.3°C 99% Calm Calm -- 29.51 in999.3 mb - 0.00 in0.0 mm 0.00 in0.0 mm
09:15 AM 20.5°F-6.4°C 20.3°F-6.5°C 99% Calm Calm -- 29.52 in999.7 mb - 0.00 in0.0 mm 0.00 in0.0 mm
09:30 AM 21.7°F-5.7°C 20.9°F-6.2°C 97% Calm Calm -- 29.52 in999.7 mb - 0.00 in0.0 mm 0.00 in0.0 mm
09:45 AM 22.7°F-5.2°C 21.9°F-5.6°C 97% Calm Calm -- 29.53 in1000.0 mb - 0.00 in0.0 mm 0.00 in0.0 mm
10:00 AM 23.9°F-4.5°C 21.7°F-5.7°C 91% Calm Calm -- 29.54 in1000.3 mb - 0.00 in0.0 mm 0.00 in0.0 mm
10:15 AM 24.8°F-4.0°C 21.5°F-5.8°C 87% Calm Calm -- 29.55 in1000.7 mb - 0.00 in0.0 mm 0.00 in0.0 mm
10:30 AM 26.1°F-3.3°C 21.9°F-5.6°C 84% Calm Calm -- 29.54 in1000.3 mb - 0.00 in0.0 mm 0.00 in0.0 mm
10:45 AM 27.3°F-2.6°C 22.5°F-5.3°C 82% Calm Calm -- 29.54 in1000.3 mb - 0.00 in0.0 mm 0.00 in0.0 mm
11:00 AM 28.4°F-2.0°C 23.3°F-4.8°C 81% Calm Calm -- 29.54 in1000.3 mb - 0.00 in0.0 mm 0.00 in0.0 mm
11:15 AM 29.7°F-1.3°C 24.0°F-4.4°C 79% Calm Calm -- 29.55 in1000.7 mb - 0.00 in0.0 mm 0.00 in0.0 mm
11:30 AM 30.9°F-0.6°C 24.5°F-4.2°C 77% Calm Calm -- 29.55 in1000.7 mb - 0.00 in0.0 mm 0.00 in0.0 mm
11:45 AM 31.6°F-0.2°C 24.9°F-3.9°C 76% Calm Calm -- 29.55 in1000.7 mb - 0.00 in0.0 mm 0.00 in0.0 mm
12:00 PM 32.2°F0.1°C 25.5°F-3.6°C 76% Calm Calm -- 29.54 in1000.3 mb - 0.00 in0.0 mm 0.00 in0.0 mm
12:15 PM 32.4°F0.2°C 25.4°F-3.7°C 75% Calm Calm -- 29.52 in999.7 mb - 0.00 in0.0 mm 0.00 in0.0 mm
12:30 PM 33.5°F0.8°C 26.4°F-3.1°C 75% Calm Calm -- 29.52 in999.7 mb - 0.00 in0.0 mm 0.00 in0.0 mm
12:45 PM 34.3°F1.3°C 27.2°F-2.7°C 75% Calm Calm -- 29.52 in999.7 mb - 0.00 in0.0 mm 0.00 in0.0 mm
01:00 PM 35.4°F1.9°C 27.6°F-2.4°C 73% Calm Calm -- 29.51 in999.3 mb - 0.00 in0.0 mm 0.00 in0.0 mm
01:15 PM 36.1°F2.3°C 28.3°F-2.1°C 73% Calm Calm -- 29.50 in999.0 mb - 0.00 in0.0 mm 0.00 in0.0 mm
01:30 PM 36.0°F2.2°C 28.2°F-2.1°C 73% Calm Calm -- 29.50 in999.0 mb - 0.00 in0.0 mm 0.00 in0.0 mm
01:45 PM 36.3°F2.4°C 28.5°F-1.9°C 73% Calm Calm -- 29.49 in998.6 mb - 0.00 in0.0 mm 0.00 in0.0 mm
02:00 PM 36.9°F2.7°C 28.7°F-1.8°C 72% Calm Calm 1.2 mph1.9 kmh 29.49 in998.6 mb - 0.00 in0.0 mm 0.00 in0.0 mm
02:15 PM 36.7°F2.6°C 28.5°F-1.9°C 72% Calm Calm -- 29.48 in998.3 mb - 0.00 in0.0 mm 0.00 in0.0 mm
02:30 PM 36.3°F2.4°C 28.1°F-2.2°C 72% Calm Calm 2.3 mph3.7 kmh 29.48 in998.3 mb - 0.00 in0.0 mm 0.00 in0.0 mm
02:45 PM 35.2°F1.8°C 27.7°F-2.4°C 74% Calm Calm 1.2 mph1.9 kmh 29.47 in998.0 mb - 0.00 in0.0 mm 0.00 in0.0 mm
03:00 PM 35.4°F1.9°C 28.3°F-2.1°C 75% 1.2 mph SSE1.9 kmh SSE 2.3 mph3.7 kmh 29.47 in998.0 mb - 0.00 in0.0 mm 0.00 in0.0 mm
03:15 PM 35.8°F2.1°C 28.6°F-1.9°C 75% Calm Calm 2.3 mph3.7 kmh 29.47 in998.0 mb - 0.00 in0.0 mm 0.00 in0.0 mm
03:30 PM 36.1°F2.3°C 28.9°F-1.7°C 75% Calm Calm -- 29.47 in998.0 mb - 0.00 in0.0 mm 0.00 in0.0 mm
03:45 PM 37.0°F2.8°C 29.9°F-1.2°C 75% Calm Calm -- 29.47 in998.0 mb - 0.00 in0.0 mm 0.00 in0.0 mm
04:00 PM 36.3°F2.4°C 29.1°F-1.6°C 75% Calm Calm 1.2 mph1.9 kmh 29.47 in998.0 mb - 0.00 in0.0 mm 0.00 in0.0 mm
04:15 PM 36.1°F2.3°C 29.6°F-1.3°C 77% Calm Calm -- 29.47 in998.0 mb - 0.00 in0.0 mm 0.00 in0.0 mm
04:30 PM 35.8°F2.1°C 29.6°F-1.3°C 78% Calm Calm 1.2 mph1.9 kmh 29.47 in998.0 mb - 0.00 in0.0 mm 0.00 in0.0 mm
04:45 PM 35.1°F1.7°C 29.2°F-1.6°C 79% Calm Calm 1.2 mph1.9 kmh 29.47 in998.0 mb - 0.00 in0.0 mm 0.00 in0.0 mm
05:00 PM 34.5°F1.4°C 29.0°F-1.7°C 80% Calm Calm 2.3 mph3.7 kmh 29.47 in998.0 mb - 0.00 in0.0 mm 0.00 in0.0 mm
05:15 PM 33.8°F1.0°C 29.2°F-1.6°C 83% Calm Calm -- 29.46 in997.6 mb - 0.00 in0.0 mm 0.00 in0.0 mm
05:30 PM 33.6°F0.9°C 29.3°F-1.5°C 84% 1.2 mph SSE1.9 kmh SSE -- 29.46 in997.6 mb - 0.00 in0.0 mm 0.00 in0.0 mm
05:45 PM 33.3°F0.7°C 29.3°F-1.5°C 85% Calm Calm 1.2 mph1.9 kmh 29.45 in997.3 mb - 0.00 in0.0 mm 0.00 in0.0 mm
06:00 PM 33.0°F0.6°C 29.6°F-1.3°C 87% Calm Calm -- 29.44 in997.0 mb - 0.00 in0.0 mm 0.00 in0.0 mm
06:15 PM 32.7°F0.4°C 29.5°F-1.4°C 88% 1.2 mph S1.9 kmh S 1.2 mph1.9 kmh 29.43 in996.6 mb - 0.00 in0.0 mm 0.00 in0.0 mm
06:30 PM 32.5°F0.3°C 29.9°F-1.2°C 90% 2.3 mph SE3.7 kmh SE 2.3 mph3.7 kmh 29.43 in996.6 mb - 0.00 in0.0 mm 0.00 in0.0 mm
06:45 PM 32.5°F0.3°C 30.2°F-1.0°C 91% 1.2 mph S1.9 kmh S 2.3 mph3.7 kmh 29.42 in996.3 mb - 0.00 in0.0 mm 0.00 in0.0 mm
07:00 PM 32.4°F0.2°C 30.6°F-0.8°C 93% 1.2 mph SSE1.9 kmh SSE 2.3 mph3.7 kmh 29.42 in996.3 mb - 0.00 in0.0 mm 0.00 in0.0 mm
07:15 PM 32.0°F0.0°C 30.4°F-0.9°C 94% 1.2 mph SSE1.9 kmh SSE 1.2 mph1.9 kmh 29.42 in996.3 mb - 0.00 in0.0 mm 0.00 in0.0 mm
07:30 PM 31.5°F-0.3°C 30.2°F-1.0°C 95% Calm Calm -- 29.42 in996.3 mb - 0.00 in0.0 mm 0.00 in0.0 mm
07:45 PM 31.1°F-0.5°C 30.3°F-0.9°C 97% 1.2 mph SSE1.9 kmh SSE 1.2 mph1.9 kmh 29.42 in996.3 mb - 0.00 in0.0 mm 0.00 in0.0 mm
08:00 PM 30.7°F-0.7°C 30.0°F-1.1°C 97% 1.2 mph SSE1.9 kmh SSE 1.2 mph1.9 kmh 29.41 in995.9 mb - 0.00 in0.0 mm 0.00 in0.0 mm
08:30 PM 30.7°F-0.7°C 30.2°F-1.0°C 98% 1.2 mph SE1.9 kmh SE 3.5 mph5.6 kmh 29.41 in995.9 mb - 0.00 in0.0 mm 0.00 in0.0 mm
08:45 PM 30.7°F-0.7°C 30.5°F-0.8°C 99% 2.3 mph SSE3.7 kmh SSE 2.3 mph3.7 kmh 29.40 in995.6 mb - 0.00 in0.0 mm 0.00 in0.0 mm
09:00 PM 30.6°F-0.8°C 30.4°F-0.9°C 99% 1.2 mph SE1.9 kmh SE 2.3 mph3.7 kmh 29.40 in995.6 mb - 0.00 in0.0 mm 0.00 in0.0 mm
09:15 PM 30.4°F-0.9°C 30.2°F-1.0°C 99% 1.2 mph SSE1.9 kmh SSE 2.3 mph3.7 kmh 29.40 in995.6 mb - 0.00 in0.0 mm 0.00 in0.0 mm
09:30 PM 30.4°F-0.9°C 30.2°F-1.0°C 99% 1.2 mph SSE1.9 kmh SSE 2.3 mph3.7 kmh 29.40 in995.6 mb - 0.00 in0.0 mm 0.00 in0.0 mm
09:45 PM 30.4°F-0.9°C 30.2°F-1.0°C 99% Calm Calm 1.2 mph1.9 kmh 29.39 in995.3 mb - 0.00 in0.0 mm 0.00 in0.0 mm
10:00 PM 30.4°F-0.9°C 30.2°F-1.0°C 99% 1.2 mph SE1.9 kmh SE 1.2 mph1.9 kmh 29.39 in995.3 mb - 0.00 in0.0 mm 0.00 in0.0 mm
10:15 PM 30.4°F-0.9°C 30.2°F-1.0°C 99% 1.2 mph S1.9 kmh S 1.2 mph1.9 kmh 29.39 in995.3 mb - 0.00 in0.0 mm 0.00 in0.0 mm
10:30 PM 30.4°F-0.9°C 30.2°F-1.0°C 99% 2.3 mph SSE3.7 kmh SSE 3.5 mph5.6 kmh 29.39 in995.3 mb - 0.00 in0.0 mm 0.00 in0.0 mm
10:45 PM 30.6°F-0.8°C 30.4°F-0.9°C 99% 3.5 mph SE5.6 kmh SE 3.5 mph5.6 kmh 29.39 in995.3 mb - 0.00 in0.0 mm 0.00 in0.0 mm
11:00 PM 30.7°F-0.7°C 30.5°F-0.8°C 99% 1.2 mph S1.9 kmh S 2.3 mph3.7 kmh 29.38 in994.9 mb - 0.01 in0.3 mm 0.01 in0.3 mm
11:15 PM 30.9°F-0.6°C 30.7°F-0.7°C 99% 2.3 mph SE3.7 kmh SE 2.3 mph3.7 kmh 29.38 in994.9 mb - 0.00 in0.0 mm 0.01 in0.3 mm
11:30 PM 30.9°F-0.6°C 30.7°F-0.7°C 99% 2.3 mph SSE3.7 kmh SSE 3.5 mph5.6 kmh 29.38 in994.9 mb - 0.00 in0.0 mm 0.01 in0.3 mm
11:45 PM 30.9°F-0.6°C 30.7°F-0.7°C 99% 2.3 mph SSE3.7 kmh SSE 3.5 mph5.6 kmh 29.37 in994.6 mb - 0.00 in0.0 mm 0.01 in0.3 mm